Private Wetterstation Sandau
Wetterdaten: Mittwoch, 15.02.2012
Datum Zeit Temp. A. Feuchte A. Luftdruck Regen Wind Richtung Richtung Taupunkt Windchill
15.02.2012 00:02 2,1 C 89 % 999,0 hPa 0,0 l/m 18,0 km/h (3 Bft) W 270 0,5 C -2,3 C
15.02.2012 00:07 2,1 C 89 % 999,0 hPa 0,0 l/m 26,6 km/h (4 Bft) W-SW 247 0,5 C -3,4 C
15.02.2012 00:12 2,0 C 89 % 998,8 hPa 0,0 l/m 13,3 km/h (3 Bft) W-NW 292 0,4 C -1,6 C
15.02.2012 00:17 2,0 C 90 % 998,7 hPa 0,0 l/m 19,8 km/h (3 Bft) SW 225 0,5 C -2,7 C
15.02.2012 00:22 2,0 C 90 % 998,6 hPa 0,0 l/m 25,2 km/h (4 Bft) W 270 0,5 C -3,4 C
15.02.2012 00:27 1,9 C 90 % 998,2 hPa 0,0 l/m 10,8 km/h (2 Bft) S-SW 202 0,4 C -1,2 C
15.02.2012 00:32 1,9 C 90 % 998,1 hPa 0,0 l/m 22,3 km/h (4 Bft) W 270 0,4 C -3,1 C
15.02.2012 00:37 1,9 C 90 % 998,0 hPa 0,0 l/m 23,8 km/h (4 Bft) W 270 0,4 C -3,3 C
15.02.2012 00:42 1,9 C 90 % 997,8 hPa 0,0 l/m 11,9 km/h (2 Bft) W-SW 247 0,4 C -1,5 C
15.02.2012 00:47 1,9 C 90 % 997,8 hPa 0,0 l/m 16,9 km/h (3 Bft) SW 225 0,4 C -2,4 C
15.02.2012 00:52 1,9 C 90 % 997,6 hPa 0,0 l/m 12,2 km/h (2 Bft) W 270 0,4 C -1,5 C
15.02.2012 00:57 1,9 C 90 % 997,5 hPa 0,0 l/m 14,8 km/h (3 Bft) W 270 0,4 C -2,0 C
15.02.2012 01:02 2,0 C 90 % 997,1 hPa 0,0 l/m 19,4 km/h (3 Bft) SW 225 0,5 C -2,6 C
15.02.2012 01:07 2,1 C 90 % 996,9 hPa 0,5 l/m 19,8 km/h (3 Bft) W 270 0,6 C -2,6 C
15.02.2012 01:12 2,1 C 90 % 996,7 hPa 0,0 l/m 13,7 km/h (3 Bft) W 270 0,6 C -1,6 C
15.02.2012 01:17 2,1 C 90 % 996,7 hPa 0,0 l/m 28,8 km/h (4 Bft) W-SW 247 0,6 C -3,6 C
15.02.2012 01:22 2,1 C 90 % 996,2 hPa 0,0 l/m 27,7 km/h (4 Bft) W 270 0,6 C -3,5 C
15.02.2012 01:27 2,1 C 90 % 996,3 hPa 0,0 l/m 19,8 km/h (3 Bft) W 270 0,6 C -2,6 C
15.02.2012 01:32 2,1 C 90 % 996,1 hPa 0,0 l/m 25,9 km/h (4 Bft) W-SW 247 0,6 C -3,3 C
15.02.2012 01:37 2,1 C 90 % 995,9 hPa 0,0 l/m 25,6 km/h (4 Bft) W 270 0,6 C -3,3 C
15.02.2012 01:42 2,1 C 90 % 995,4 hPa 0,0 l/m 16,6 km/h (3 Bft) W 270 0,6 C -2,1 C
15.02.2012 01:47 2,2 C 90 % 995,3 hPa 0,0 l/m 14,0 km/h (3 Bft) W-NW 292 0,7 C -1,5 C
15.02.2012 01:52 2,2 C 90 % 995,1 hPa 0,0 l/m 9,4 km/h (2 Bft) SW 225 0,7 C -0,5 C
15.02.2012 01:57 2,2 C 90 % 994,8 hPa 0,0 l/m 25,6 km/h (4 Bft) SW 225 0,7 C -3,1 C
15.02.2012 02:02 2,2 C 90 % 994,7 hPa 0,0 l/m 13,0 km/h (3 Bft) W-SW 247 0,7 C -1,3 C
15.02.2012 02:07 2,3 C 90 % 994,4 hPa 0,0 l/m 26,6 km/h (4 Bft) W-SW 247 0,8 C -3,1 C
15.02.2012 02:12 2,3 C 90 % 994,5 hPa 0,0 l/m 14,0 km/h (3 Bft) W 270 0,8 C -1,4 C
15.02.2012 02:17 2,4 C 90 % 994,4 hPa 0,0 l/m 23,4 km/h (4 Bft) W 270 0,9 C -2,6 C
15.02.2012 02:22 2,4 C 90 % 994,3 hPa 0,0 l/m 16,6 km/h (3 Bft) W 270 0,9 C -1,7 C
15.02.2012 02:27 2,5 C 90 % 994,0 hPa 0,0 l/m 18,0 km/h (3 Bft) W-SW 247 1,0 C -1,8 C
15.02.2012 02:32 2,6 C 91 % 994,2 hPa 0,0 l/m 17,6 km/h (3 Bft) W-NW 292 1,3 C -1,6 C
15.02.2012 02:37 2,6 C 91 % 994,3 hPa 0,0 l/m 15,5 km/h (3 Bft) W 270 1,3 C -1,3 C
15.02.2012 02:42 2,6 C 91 % 994,0 hPa 0,0 l/m 23,4 km/h (4 Bft) W-NW 292 1,3 C -2,4 C
15.02.2012 02:47 2,7 C 91 % 994,0 hPa 0,0 l/m 28,8 km/h (4 Bft) W-NW 292 1,4 C -2,8 C
15.02.2012 02:52 2,8 C 91 % 994,0 hPa 0,0 l/m 27,4 km/h (4 Bft) W 270 1,5 C -2,6 C
15.02.2012 02:57 2,8 C 91 % 993,8 hPa 0,0 l/m 19,4 km/h (3 Bft) W 270 1,5 C -1,6 C
15.02.2012 03:02 2,8 C 91 % 993,6 hPa 0,0 l/m 22,0 km/h (4 Bft) W-NW 292 1,5 C -2,0 C
15.02.2012 03:07 2,9 C 91 % 993,6 hPa 0,0 l/m 9,7 km/h (2 Bft) W 270 1,6 C 0,2 C
15.02.2012 03:12 2,9 C 90 % 993,7 hPa 0,0 l/m 23,4 km/h (4 Bft) W-NW 292 1,4 C -2,0 C
15.02.2012 03:17 2,9 C 90 % 993,5 hPa 0,5 l/m 30,6 km/h (5 Bft) W 270 1,4 C -2,7 C
15.02.2012 03:22 2,9 C 90 % 993,5 hPa 0,0 l/m 16,9 km/h (3 Bft) W 270 1,4 C -1,1 C
15.02.2012 03:27 2,9 C 90 % 993,6 hPa 0,0 l/m 23,4 km/h (4 Bft) W-NW 292 1,4 C -2,0 C
15.02.2012 03:32 3,0 C 90 % 993,6 hPa 0,0 l/m 14,4 km/h (3 Bft) W-NW 292 1,5 C -0,6 C
15.02.2012 03:37 3,0 C 90 % 993,7 hPa 0,0 l/m 20,9 km/h (4 Bft) NW 315 1,5 C -1,6 C
15.02.2012 03:42 3,0 C 90 % 993,7 hPa 0,0 l/m 18,0 km/h (3 Bft) W 270 1,5 C -1,2 C
15.02.2012 03:47 2,9 C 89 % 993,7 hPa 0,0 l/m 18,4 km/h (3 Bft) NW 315 1,3 C -1,4 C
15.02.2012 03:52 2,9 C 89 % 993,8 hPa 0,0 l/m 15,8 km/h (3 Bft) W-NW 292 1,3 C -1,0 C
15.02.2012 03:57 2,9 C 89 % 993,9 hPa 0,0 l/m 24,8 km/h (4 Bft) NW 315 1,3 C -2,2 C
15.02.2012 04:02 2,9 C 89 % 994,0 hPa 0,0 l/m 33,1 km/h (5 Bft) NW 315 1,3 C -3,0 C
15.02.2012 04:07 2,9 C 89 % 994,1 hPa 0,0 l/m 23,4 km/h (4 Bft) NW 315 1,3 C -2,0 C
15.02.2012 04:12 2,9 C 89 % 994,2 hPa 0,0 l/m 18,0 km/h (3 Bft) NW 315 1,3 C -1,3 C
15.02.2012 04:17 2,8 C 89 % 993,9 hPa 0,0 l/m 11,5 km/h (2 Bft) W-NW 292 1,2 C -0,3 C
15.02.2012 04:22 2,8 C 88 % 993,9 hPa 0,0 l/m 18,0 km/h (3 Bft) W-NW 292 1,0 C -1,4 C
15.02.2012 04:27 2,8 C 88 % 994,1 hPa 0,0 l/m 10,8 km/h (2 Bft) W 270 1,0 C -0,2 C
15.02.2012 04:32 2,7 C 88 % 994,2 hPa 0,0 l/m 14,8 km/h (3 Bft) W-NW 292 0,9 C -1,1 C
15.02.2012 04:37 2,6 C 88 % 994,3 hPa 0,0 l/m 18,0 km/h (3 Bft) W 270 0,8 C -1,7 C
15.02.2012 04:42 2,6 C 88 % 994,4 hPa 0,0 l/m 11,2 km/h (2 Bft) N-NW 337 0,8 C -0,5 C
15.02.2012 04:47 2,5 C 88 % 994,6 hPa 0,0 l/m 15,1 km/h (3 Bft) W-SW 247 0,7 C -1,4 C
15.02.2012 04:52 2,5 C 88 % 994,5 hPa 0,0 l/m 21,6 km/h (4 Bft) N-NW 337 0,7 C -2,3 C
15.02.2012 04:57 2,6 C 87 % 994,6 hPa 0,0 l/m 8,6 km/h (2 Bft) NW 315 0,7 C 0,1 C
15.02.2012 05:02 2,7 C 86 % 994,7 hPa 0,0 l/m 14,8 km/h (3 Bft) N 360 0,6 C -1,1 C
15.02.2012 05:07 2,8 C 86 % 994,9 hPa 0,0 l/m 13,7 km/h (3 Bft) N-NW 337 0,7 C -0,7 C
15.02.2012 05:12 2,8 C 86 % 995,0 hPa 0,0 l/m 13,3 km/h (3 Bft) W-SW 247 0,7 C -0,7 C
15.02.2012 05:17 2,8 C 85 % 995,2 hPa 0,0 l/m 21,2 km/h (4 Bft) NW 315 0,5 C -1,9 C
15.02.2012 05:22 2,7 C 85 % 995,3 hPa 0,0 l/m 6,1 km/h (2 Bft) NW 315 0,4 C 1,0 C
15.02.2012 05:27 2,7 C 84 % 995,2 hPa 0,0 l/m 17,6 km/h (3 Bft) NO 45 0,3 C -1,5 C
15.02.2012 05:32 2,6 C 84 % 995,4 hPa 0,0 l/m 13,0 km/h (3 Bft) N-NO 22 0,2 C -0,8 C
15.02.2012 05:37 2,6 C 84 % 995,6 hPa 0,0 l/m 10,4 km/h (2 Bft) O 90 0,2 C -0,3 C
15.02.2012 05:42 2,5 C 83 % 995,5 hPa 0,0 l/m 10,8 km/h (2 Bft) W-NW 292 -0,1 C -0,5 C
15.02.2012 05:47 2,4 C 83 % 995,5 hPa 0,0 l/m 22,7 km/h (4 Bft) NW 315 -0,2 C -2,6 C
15.02.2012 05:52 2,4 C 82 % 995,7 hPa 0,0 l/m 20,5 km/h (4 Bft) N-NW 337 -0,4 C -2,3 C
15.02.2012 05:57 2,4 C 81 % 995,8 hPa 0,0 l/m 13,7 km/h (3 Bft) NO 45 -0,5 C -1,2 C
15.02.2012 06:02 2,4 C 81 % 995,7 hPa 0,0 l/m 8,6 km/h (2 Bft) N-NW 337 -0,5 C -0,1 C
15.02.2012 06:07 2,3 C 81 % 995,6 hPa 0,0 l/m 15,1 km/h (3 Bft) NW 315 -0,6 C -1,6 C
15.02.2012 06:12 2,2 C 81 % 995,7 hPa 0,0 l/m 19,8 km/h (3 Bft) NW 315 -0,7 C -2,4 C
15.02.2012 06:17 2,1 C 81 % 995,7 hPa 0,0 l/m 22,0 km/h (4 Bft) NW 315 -0,8 C -2,9 C
15.02.2012 06:22 1,9 C 82 % 995,7 hPa 0,0 l/m 17,3 km/h (3 Bft) W-NW 292 -0,8 C -2,5 C
15.02.2012 06:27 1,9 C 82 % 995,7 hPa 0,0 l/m 27,7 km/h (4 Bft) NW 315 -0,8 C -3,8 C
15.02.2012 06:32 1,9 C 83 % 995,8 hPa 0,0 l/m 15,5 km/h (3 Bft) W-NW 292 -0,7 C -2,2 C
15.02.2012 06:37 1,9 C 83 % 995,8 hPa 0,0 l/m 13,3 km/h (3 Bft) NW 315 -0,7 C -1,8 C
15.02.2012 06:42 1,8 C 83 % 995,9 hPa 0,0 l/m 14,4 km/h (3 Bft) W 270 -0,8 C -2,1 C
15.02.2012 06:47 1,8 C 84 % 995,7 hPa 0,0 l/m 21,2 km/h (4 Bft) NW 315 -0,6 C -3,1 C
15.02.2012 06:52 1,8 C 84 % 995,9 hPa 0,0 l/m 26,3 km/h (4 Bft) NW 315 -0,6 C -3,7 C
15.02.2012 06:57 1,8 C 84 % 996,0 hPa 0,0 l/m 19,1 km/h (3 Bft) W 270 -0,6 C -2,8 C
15.02.2012 07:02 1,6 C 84 % 996,0 hPa 0,0 l/m 26,6 km/h (4 Bft) W 270 -0,8 C -4,0 C
15.02.2012 07:07 1,6 C 85 % 996,1 hPa 0,0 l/m 18,4 km/h (3 Bft) W 270 -0,6 C -3,0 C
15.02.2012 07:12 1,6 C 84 % 996,3 hPa 0,0 l/m 22,0 km/h (4 Bft) NW 315 -0,8 C -3,5 C
15.02.2012 07:17 1,6 C 84 % 996,4 hPa 0,0 l/m 16,6 km/h (3 Bft) W-NW 292 -0,8 C -2,7 C
15.02.2012 07:22 1,5 C 84 % 996,1 hPa 0,0 l/m 18,7 km/h (3 Bft) W-NW 292 -0,9 C -3,2 C
15.02.2012 07:27 1,5 C 84 % 996,2 hPa 0,0 l/m 14,4 km/h (3 Bft) W-NW 292 -0,9 C -2,5 C
15.02.2012 07:32 1,5 C 84 % 996,3 hPa 0,0 l/m 24,8 km/h (4 Bft) W-NW 292 -0,9 C -4,0 C
15.02.2012 07:37 1,4 C 84 % 996,2 hPa 0,0 l/m 15,1 km/h (3 Bft) W-NW 292 -1,0 C -2,7 C
15.02.2012 07:42 1,4 C 83 % 996,5 hPa 0,0 l/m 7,6 km/h (2 Bft) NW 315 -1,2 C -1,0 C
15.02.2012 07:47 1,4 C 83 % 996,7 hPa 0,0 l/m 20,9 km/h (4 Bft) W-NW 292 -1,2 C -3,6 C
15.02.2012 07:52 1,4 C 83 % 996,6 hPa 0,0 l/m 9,7 km/h (2 Bft) NW 315 -1,2 C -1,6 C
15.02.2012 07:57 1,4 C 83 % 996,7 hPa 0,0 l/m 20,9 km/h (4 Bft) NW 315 -1,2 C -3,6 C
15.02.2012 08:02 1,4 C 83 % 996,8 hPa 0,0 l/m 8,6 km/h (2 Bft) N-NW 337 -1,2 C -1,3 C
15.02.2012 08:07 1,3 C 82 % 997,0 hPa 0,0 l/m 12,2 km/h (2 Bft) W-NW 292 -1,4 C -2,3 C
15.02.2012 08:12 1,3 C 82 % 997,0 hPa 0,0 l/m 14,0 km/h (3 Bft) W-NW 292 -1,4 C -2,6 C
15.02.2012 08:17 1,3 C 82 % 997,0 hPa 0,0 l/m 14,8 km/h (3 Bft) NW 315 -1,4 C -2,8 C
15.02.2012 08:22 1,3 C 82 % 997,4 hPa 0,0 l/m 9,0 km/h (2 Bft) W 270 -1,4 C -1,5 C
15.02.2012 08:27 1,3 C 82 % 997,5 hPa 0,0 l/m 16,2 km/h (3 Bft) W 270 -1,4 C -3,0 C
15.02.2012 08:32 1,3 C 82 % 997,5 hPa 0,0 l/m 11,2 km/h (2 Bft) NW 315 -1,4 C -2,0 C
15.02.2012 08:37 1,3 C 82 % 997,4 hPa 0,0 l/m 11,9 km/h (2 Bft) W-NW 292 -1,4 C -2,2 C
15.02.2012 08:42 1,3 C 82 % 997,5 hPa 0,0 l/m 10,4 km/h (2 Bft) W-NW 292 -1,4 C -1,9 C
15.02.2012 08:47 1,3 C 81 % 997,7 hPa 0,0 l/m 16,9 km/h (3 Bft) NW 315 -1,6 C -3,1 C
15.02.2012 08:52 1,3 C 81 % 997,6 hPa 0,0 l/m 14,4 km/h (3 Bft) NW 315 -1,6 C -2,7 C
15.02.2012 08:57 1,4 C 81 % 997,9 hPa 0,0 l/m 7,9 km/h (2 Bft) W 270 -1,5 C -1,1 C
15.02.2012 09:02 1,4 C 81 % 998,1 hPa 0,0 l/m 10,8 km/h (2 Bft) W-SW 247 -1,5 C -1,8 C
15.02.2012 09:07 1,5 C 81 % 998,0 hPa 0,0 l/m 13,0 km/h (3 Bft) W-NW 292 -1,4 C -2,2 C
15.02.2012 09:12 1,6 C 81 % 998,0 hPa 0,0 l/m 19,8 km/h (3 Bft) N 360 -1,3 C -3,2 C
15.02.2012 09:17 1,6 C 80 % 997,7 hPa 0,0 l/m 5,0 km/h (1 Bft) W-NW 292 -1,5 C 0,2 C
15.02.2012 09:22 1,6 C 80 % 997,9 hPa 0,0 l/m 15,5 km/h (3 Bft) W 270 -1,5 C -2,5 C
15.02.2012 09:27 1,8 C 80 % 997,9 hPa 0,0 l/m 7,6 km/h (2 Bft) W 270 -1,3 C -0,5 C
15.02.2012 09:32 1,8 C 80 % 998,1 hPa 0,0 l/m 17,3 km/h (3 Bft) W-NW 292 -1,3 C -2,6 C
15.02.2012 09:37 1,8 C 80 % 998,1 hPa 0,0 l/m 12,2 km/h (2 Bft) N-NO 22 -1,3 C -1,7 C
15.02.2012 09:42 1,9 C 80 % 998,3 hPa 0,0 l/m 18,7 km/h (3 Bft) W-NW 292 -1,2 C -2,7 C
15.02.2012 09:47 1,9 C 80 % 998,2 hPa 0,0 l/m 14,0 km/h (3 Bft) W-NW 292 -1,2 C -1,9 C
15.02.2012 09:52 1,9 C 79 % 998,2 hPa 0,0 l/m 16,6 km/h (3 Bft) N-NW 337 -1,3 C -2,3 C
15.02.2012 09:57 2,1 C 79 % 998,1 hPa 0,0 l/m 17,6 km/h (3 Bft) NW 315 -1,2 C -2,2 C
15.02.2012 10:02 2,1 C 79 % 998,3 hPa 0,0 l/m 13,3 km/h (3 Bft) W 270 -1,2 C -1,5 C
15.02.2012 10:07 2,2 C 79 % 998,4 hPa 0,0 l/m 15,1 km/h (3 Bft) N-NW 337 -1,1 C -1,7 C
15.02.2012 10:12 2,3 C 78 % 998,5 hPa 0,0 l/m 13,3 km/h (3 Bft) W-NW 292 -1,1 C -1,3 C
15.02.2012 10:17 2,4 C 78 % 998,6 hPa 0,0 l/m 18,7 km/h (3 Bft) W 270 -1,0 C -2,0 C
15.02.2012 10:22 2,4 C 78 % 998,8 hPa 0,0 l/m 21,2 km/h (4 Bft) N-NW 337 -1,0 C -2,4 C
15.02.2012 10:27 2,5 C 78 % 998,9 hPa 0,0 l/m 12,2 km/h (2 Bft) W 270 -0,9 C -0,8 C
15.02.2012 10:32 2,6 C 78 % 998,8 hPa 0,0 l/m 11,5 km/h (2 Bft) W-NW 292 -0,8 C -0,5 C
15.02.2012 10:37 2,7 C 77 % 998,9 hPa 0,0 l/m 6,1 km/h (2 Bft) W-NW 292 -0,9 C 1,0 C
15.02.2012 10:42 2,8 C 77 % 999,0 hPa 0,0 l/m 7,2 km/h (2 Bft) N-NW 337 -0,8 C 0,8 C
15.02.2012 10:47 2,9 C 77 % 998,9 hPa 0,0 l/m 9,4 km/h (2 Bft) NW 315 -0,7 C 0,3 C
15.02.2012 10:52 2,9 C 77 % 998,8 hPa 0,0 l/m 20,5 km/h (4 Bft) W-NW 292 -0,7 C -1,6 C
15.02.2012 10:57 3,0 C 76 % 998,9 hPa 0,0 l/m 13,0 km/h (3 Bft) NW 315 -0,8 C -0,4 C
15.02.2012 11:02 3,1 C 76 % 999,1 hPa 0,0 l/m 14,4 km/h (3 Bft) N 360 -0,7 C -0,5 C
15.02.2012 11:07 3,2 C 75 % 999,0 hPa 0,0 l/m 15,5 km/h (3 Bft) NW 315 -0,8 C -0,6 C
15.02.2012 11:12 3,3 C 75 % 999,1 hPa 0,0 l/m 11,9 km/h (2 Bft) N-NO 22 -0,7 C 0,2 C
15.02.2012 11:17 3,5 C 74 % 999,2 hPa 0,0 l/m 9,0 km/h (2 Bft) N 360 -0,7 C 1,1 C
15.02.2012 11:22 3,6 C 72 % 999,3 hPa 0,0 l/m 16,9 km/h (3 Bft) W-NW 292 -1,0 C -0,3 C
15.02.2012 11:27 3,7 C 71 % 999,4 hPa 0,0 l/m 11,2 km/h (2 Bft) N 360 -1,1 C 0,8 C
15.02.2012 11:32 3,8 C 71 % 999,4 hPa 0,0 l/m 19,1 km/h (3 Bft) N-NO 22 -1,0 C -0,3 C
15.02.2012 11:37 3,8 C 69 % 999,3 hPa 0,0 l/m 10,4 km/h (2 Bft) O 90 -1,4 C 1,1 C
15.02.2012 11:42 3,8 C 69 % 999,6 hPa 0,0 l/m 13,3 km/h (3 Bft) N-NO 22 -1,4 C 0,6 C
15.02.2012 11:47 3,8 C 69 % 999,5 hPa 0,0 l/m 16,6 km/h (3 Bft) W 270 -1,4 C 0,0 C
15.02.2012 11:52 3,9 C 69 % 999,5 hPa 0,0 l/m 14,4 km/h (3 Bft) O-NO 67 -1,3 C 0,5 C
15.02.2012 11:57 3,9 C 69 % 999,4 hPa 0,0 l/m 19,1 km/h (3 Bft) W 270 -1,3 C -0,2 C
15.02.2012 12:02 3,9 C 68 % 999,4 hPa 0,0 l/m 11,5 km/h (2 Bft) NO 45 -1,5 C 1,0 C
15.02.2012 12:07 4,0 C 67 % 999,6 hPa 0,0 l/m 19,1 km/h (3 Bft) O-NO 67 -1,6 C -0,1 C
15.02.2012 12:12 4,1 C 67 % 999,5 hPa 0,0 l/m 11,2 km/h (2 Bft) W-NW 292 -1,5 C 1,3 C
15.02.2012 12:17 4,2 C 66 % 999,7 hPa 0,0 l/m 22,7 km/h (4 Bft) NO 45 -1,6 C -0,3 C
15.02.2012 12:22 4,3 C 64 % 999,5 hPa 0,0 l/m 27,7 km/h (4 Bft) NO 45 -1,9 C -0,7 C
15.02.2012 12:27 4,4 C 63 % 999,7 hPa 0,0 l/m 20,2 km/h (4 Bft) NW 315 -2,0 C 0,3 C
15.02.2012 12:32 4,4 C 62 % 999,7 hPa 0,0 l/m 22,0 km/h (4 Bft) N-NO 22 -2,2 C 0,1 C
15.02.2012 12:37 4,4 C 61 % 999,9 hPa 0,0 l/m 28,4 km/h (4 Bft) NW 315 -2,4 C -0,6 C
15.02.2012 12:42 4,4 C 60 % 1000,0 hPa 0,0 l/m 19,1 km/h (3 Bft) N-NO 22 -2,7 C 0,4 C
15.02.2012 12:47 4,4 C 61 % 1000,0 hPa 0,0 l/m 29,2 km/h (5 Bft) NO 45 -2,4 C -0,7 C
15.02.2012 12:52 4,4 C 60 % 1000,1 hPa 0,0 l/m 15,1 km/h (3 Bft) O 90 -2,7 C 1,0 C
15.02.2012 12:57 4,4 C 60 % 1000,2 hPa 0,0 l/m 11,5 km/h (2 Bft) N-NO 22 -2,7 C 1,6 C
15.02.2012 13:02 4,4 C 60 % 1000,2 hPa 0,0 l/m 20,5 km/h (4 Bft) N-NO 22 -2,7 C 0,2 C
15.02.2012 13:07 4,5 C 60 % 1000,4 hPa 0,0 l/m 10,1 km/h (2 Bft) N 360 -2,6 C 2,0 C
15.02.2012 13:12 4,5 C 61 % 1000,5 hPa 0,0 l/m 8,3 km/h (2 Bft) O-SO 112 -2,4 C 2,5 C
15.02.2012 13:17 4,4 C 60 % 1000,4 hPa 0,0 l/m 28,8 km/h (4 Bft) N 360 -2,7 C -0,6 C
15.02.2012 13:22 4,4 C 60 % 1000,5 hPa 0,0 l/m 11,2 km/h (2 Bft) O-NO 67 -2,7 C 1,7 C
15.02.2012 13:27 4,3 C 61 % 1000,5 hPa 0,0 l/m 20,5 km/h (4 Bft) NO 45 -2,5 C 0,1 C
15.02.2012 13:32 4,3 C 61 % 1000,8 hPa 0,0 l/m 9,7 km/h (2 Bft) N-NO 22 -2,5 C 1,9 C
15.02.2012 13:37 4,3 C 61 % 1000,6 hPa 0,0 l/m 23,4 km/h (4 Bft) N 360 -2,5 C -0,2 C
15.02.2012 13:42 4,3 C 61 % 1000,8 hPa 0,0 l/m 19,1 km/h (3 Bft) N-NW 337 -2,5 C 0,3 C
15.02.2012 13:47 4,3 C 61 % 1000,7 hPa 0,0 l/m 21,2 km/h (4 Bft) N-NO 22 -2,5 C 0,0 C
15.02.2012 13:52 4,3 C 60 % 1000,7 hPa 0,0 l/m 28,8 km/h (4 Bft) O-NO 67 -2,8 C -0,8 C
15.02.2012 13:57 4,3 C 60 % 1000,8 hPa 0,0 l/m 14,4 km/h (3 Bft) NO 45 -2,8 C 1,0 C
15.02.2012 14:02 4,2 C 59 % 1001,2 hPa 0,0 l/m 14,8 km/h (3 Bft) NO 45 -3,1 C 0,8 C
15.02.2012 14:07 4,2 C 59 % 1001,3 hPa 0,0 l/m 29,9 km/h (5 Bft) NO 45 -3,1 C -1,0 C
15.02.2012 14:12 4,1 C 58 % 1001,3 hPa 0,0 l/m 19,4 km/h (3 Bft) N-NO 22 -3,4 C 0,0 C
15.02.2012 14:17 4,1 C 58 % 1001,5 hPa 0,0 l/m 27,0 km/h (4 Bft) NO 45 -3,4 C -0,8 C
15.02.2012 14:22 4,1 C 59 % 1001,6 hPa 0,0 l/m 20,5 km/h (4 Bft) N-NW 337 -3,2 C -0,1 C
15.02.2012 14:27 4,1 C 58 % 1001,6 hPa 0,0 l/m 18,4 km/h (3 Bft) O-NO 67 -3,4 C 0,1 C
15.02.2012 14:32 4,3 C 59 % 1001,8 hPa 0,0 l/m 25,6 km/h (4 Bft) N-NO 22 -3,0 C -0,4 C
15.02.2012 14:37 4,3 C 58 % 1001,9 hPa 0,0 l/m 15,5 km/h (3 Bft) NO 45 -3,2 C 0,8 C
15.02.2012 14:42 4,2 C 59 % 1002,0 hPa 0,0 l/m 15,5 km/h (3 Bft) N-NW 337 -3,1 C 0,7 C
15.02.2012 14:47 4,3 C 57 % 1002,1 hPa 0,0 l/m 16,6 km/h (3 Bft) N-NO 22 -3,5 C 0,6 C
15.02.2012 14:52 4,3 C 57 % 1002,0 hPa 0,0 l/m 9,7 km/h (2 Bft) O-SO 112 -3,5 C 1,9 C
15.02.2012 14:57 4,3 C 57 % 1002,1 hPa 0,0 l/m 19,8 km/h (3 Bft) N-NO 22 -3,5 C 0,2 C
15.02.2012 15:02 4,3 C 58 % 1002,1 hPa 0,0 l/m 18,0 km/h (3 Bft) N-NO 22 -3,2 C 0,4 C
15.02.2012 15:07 4,1 C 59 % 1002,2 hPa 0,0 l/m 20,9 km/h (4 Bft) N-NO 22 -3,2 C -0,2 C
15.02.2012 15:12 4,1 C 58 % 1002,3 hPa 0,0 l/m 12,2 km/h (2 Bft) N-NO 22 -3,4 C 1,1 C
15.02.2012 15:17 4,1 C 58 % 1002,4 hPa 0,0 l/m 18,0 km/h (3 Bft) NO 45 -3,4 C 0,2 C
15.02.2012 15:22 3,9 C 58 % 1002,6 hPa 0,0 l/m 24,5 km/h (4 Bft) N-NO 22 -3,6 C -0,8 C
15.02.2012 15:27 3,9 C 57 % 1002,6 hPa 0,0 l/m 17,3 km/h (3 Bft) O 90 -3,8 C 0,0 C
15.02.2012 15:32 3,9 C 57 % 1002,7 hPa 0,0 l/m 20,2 km/h (4 Bft) N-NW 337 -3,8 C -0,3 C
15.02.2012 15:37 3,9 C 57 % 1002,8 hPa 0,0 l/m 18,0 km/h (3 Bft) NO 45 -3,8 C -0,1 C
15.02.2012 15:42 3,9 C 58 % 1002,8 hPa 0,0 l/m 18,0 km/h (3 Bft) N-NW 337 -3,6 C -0,1 C
15.02.2012 15:47 3,9 C 59 % 1003,1 hPa 0,0 l/m 10,8 km/h (2 Bft) O-NO 67 -3,4 C 1,2 C
15.02.2012 15:52 3,9 C 59 % 1003,3 hPa 0,0 l/m 11,9 km/h (2 Bft) N-NO 22 -3,4 C 0,9 C
15.02.2012 15:57 3,8 C 58 % 1003,4 hPa 0,0 l/m 23,0 km/h (4 Bft) NO 45 -3,7 C -0,8 C
15.02.2012 16:02 3,9 C 59 % 1003,4 hPa 0,0 l/m 16,9 km/h (3 Bft) N 360 -3,4 C 0,1 C
15.02.2012 16:07 3,8 C 59 % 1003,4 hPa 0,0 l/m 19,1 km/h (3 Bft) N-NW 337 -3,5 C -0,3 C
15.02.2012 16:12 3,8 C 59 % 1003,3 hPa 0,0 l/m 15,8 km/h (3 Bft) NO 45 -3,5 C 0,1 C
15.02.2012 16:17 3,7 C 59 % 1003,6 hPa 0,0 l/m 16,9 km/h (3 Bft) NO 45 -3,6 C -0,1 C
15.02.2012 16:22 3,6 C 60 % 1003,8 hPa 0,0 l/m 18,4 km/h (3 Bft) N-NO 22 -3,4 C -0,5 C
15.02.2012 16:27 3,4 C 60 % 1003,7 hPa 0,0 l/m 15,8 km/h (3 Bft) O-NO 67 -3,6 C -0,4 C
15.02.2012 16:32 3,3 C 61 % 1003,8 hPa 0,0 l/m 16,9 km/h (3 Bft) NO 45 -3,5 C -0,6 C
15.02.2012 16:37 3,3 C 62 % 1003,9 hPa 0,0 l/m 8,3 km/h (2 Bft) NO 45 -3,3 C 1,1 C
15.02.2012 16:42 3,2 C 62 % 1004,1 hPa 0,0 l/m 10,8 km/h (2 Bft) N-NO 22 -3,4 C 0,3 C
15.02.2012 16:47 3,1 C 62 % 1004,1 hPa 0,0 l/m 23,0 km/h (4 Bft) O-NO 67 -3,5 C -1,7 C
15.02.2012 16:52 3,0 C 63 % 1004,2 hPa 0,0 l/m 7,6 km/h (2 Bft) NO 45 -3,3 C 0,9 C
15.02.2012 16:57 2,9 C 63 % 1004,4 hPa 0,0 l/m 15,5 km/h (3 Bft) NO 45 -3,4 C -0,9 C
15.02.2012 17:02 2,9 C 64 % 1004,4 hPa 0,0 l/m 17,6 km/h (3 Bft) NW 315 -3,2 C -1,2 C
15.02.2012 17:07 2,9 C 63 % 1004,7 hPa 0,0 l/m 13,0 km/h (3 Bft) N-NO 22 -3,4 C -0,5 C
15.02.2012 17:12 2,9 C 63 % 1004,7 hPa 0,0 l/m 19,1 km/h (3 Bft) O-NO 67 -3,4 C -1,5 C
15.02.2012 17:17 2,9 C 62 % 1004,8 hPa 0,0 l/m 16,6 km/h (3 Bft) NO 45 -3,6 C -1,1 C
15.02.2012 17:22 2,8 C 62 % 1004,8 hPa 0,0 l/m 11,5 km/h (2 Bft) N-NO 22 -3,7 C -0,3 C
15.02.2012 17:27 2,8 C 62 % 1005,0 hPa 0,0 l/m 11,9 km/h (2 Bft) N 360 -3,7 C -0,4 C
15.02.2012 17:32 2,8 C 62 % 1005,1 hPa 0,0 l/m 14,4 km/h (3 Bft) N 360 -3,7 C -0,9 C
15.02.2012 17:37 2,7 C 62 % 1005,3 hPa 0,0 l/m 14,4 km/h (3 Bft) N 360 -3,8 C -1,0 C
15.02.2012 17:42 2,6 C 62 % 1005,5 hPa 0,0 l/m 16,2 km/h (3 Bft) N-NO 22 -3,9 C -1,4 C
15.02.2012 17:47 2,6 C 61 % 1005,6 hPa 0,0 l/m 16,6 km/h (3 Bft) NO 45 -4,1 C -1,5 C
15.02.2012 17:52 2,6 C 61 % 1005,6 hPa 0,0 l/m 11,2 km/h (2 Bft) N-NW 337 -4,1 C -0,5 C
15.02.2012 17:57 2,5 C 61 % 1005,8 hPa 0,0 l/m 20,9 km/h (4 Bft) N-NW 337 -4,2 C -2,2 C
15.02.2012 18:02 2,5 C 61 % 1006,1 hPa 0,0 l/m 18,4 km/h (3 Bft) N 360 -4,2 C -1,9 C
15.02.2012 18:07 2,4 C 61 % 1006,2 hPa 0,0 l/m 11,9 km/h (2 Bft) N-NO 22 -4,3 C -0,9 C
15.02.2012 18:12 2,4 C 61 % 1006,4 hPa 0,0 l/m 18,4 km/h (3 Bft) NO 45 -4,3 C -2,0 C
15.02.2012 18:17 2,3 C 61 % 1006,5 hPa 0,0 l/m 14,4 km/h (3 Bft) N-NW 337 -4,4 C -1,5 C
15.02.2012 18:22 2,3 C 61 % 1006,6 hPa 0,0 l/m 14,4 km/h (3 Bft) N-NO 22 -4,4 C -1,5 C
15.02.2012 18:27 2,2 C 61 % 1006,9 hPa 0,0 l/m 9,0 km/h (2 Bft) N 360 -4,5 C -0,4 C
15.02.2012 18:32 2,1 C 62 % 1007,0 hPa 0,0 l/m 13,0 km/h (3 Bft) N-NW 337 -4,4 C -1,5 C
15.02.2012 18:37 2,1 C 61 % 1007,0 hPa 0,0 l/m 8,3 km/h (2 Bft) N 360 -4,6 C -0,4 C
15.02.2012 18:42 2,1 C 62 % 1007,2 hPa 0,0 l/m 6,5 km/h (2 Bft) N-NO 22 -4,4 C 0,2 C
15.02.2012 18:47 2,0 C 62 % 1007,3 hPa 0,0 l/m 13,7 km/h (3 Bft) NW 315 -4,5 C -1,7 C
15.02.2012 18:52 1,9 C 62 % 1007,4 hPa 0,0 l/m 8,6 km/h (2 Bft) N-NW 337 -4,6 C -0,7 C
15.02.2012 18:57 1,9 C 62 % 1007,4 hPa 0,0 l/m 20,9 km/h (4 Bft) N-NO 22 -4,6 C -3,0 C
15.02.2012 19:02 1,9 C 62 % 1007,4 hPa 0,0 l/m 11,5 km/h (2 Bft) N-NO 22 -4,6 C -1,4 C
15.02.2012 19:07 1,9 C 62 % 1007,7 hPa 0,0 l/m 5,0 km/h (1 Bft) NW 315 -4,6 C 0,6 C
15.02.2012 19:12 1,8 C 62 % 1007,8 hPa 0,0 l/m 4,0 km/h (1 Bft) O-NO 67 -4,7 C 1,8 C
15.02.2012 19:17 1,8 C 62 % 1007,9 hPa 0,0 l/m 9,0 km/h (2 Bft) N-NO 22 -4,7 C -0,9 C
15.02.2012 19:22 1,7 C 63 % 1007,9 hPa 0,0 l/m 6,1 km/h (2 Bft) NO 45 -4,6 C -0,1 C
15.02.2012 19:27 1,6 C 63 % 1008,1 hPa 0,0 l/m 11,2 km/h (2 Bft) N 360 -4,7 C -1,7 C
15.02.2012 19:32 1,5 C 63 % 1008,1 hPa 0,0 l/m 5,4 km/h (1 Bft) N-NO 22 -4,8 C -0,1 C
15.02.2012 19:37 1,4 C 63 % 1008,3 hPa 0,0 l/m 5,8 km/h (2 Bft) N-NO 22 -4,9 C -0,3 C
15.02.2012 19:42 1,4 C 63 % 1008,5 hPa 0,0 l/m 9,0 km/h (2 Bft) N 360 -4,9 C -1,4 C
15.02.2012 19:47 1,3 C 64 % 1008,5 hPa 0,0 l/m 4,0 km/h (1 Bft) NO 45 -4,7 C 1,3 C
15.02.2012 19:52 1,3 C 64 % 1008,5 hPa 0,0 l/m 5,0 km/h (1 Bft) N 360 -4,7 C -0,1 C
15.02.2012 19:57 1,3 C 65 % 1008,8 hPa 0,0 l/m 8,6 km/h (2 Bft) N-NO 22 -4,5 C -1,4 C
15.02.2012 20:02 1,3 C 65 % 1008,8 hPa 0,0 l/m 6,5 km/h (2 Bft) N-NO 22 -4,5 C -0,7 C
15.02.2012 20:07 1,3 C 65 % 1008,8 hPa 0,0 l/m 6,1 km/h (2 Bft) O-NO 67 -4,5 C -0,6 C
15.02.2012 20:12 1,3 C 65 % 1008,9 hPa 0,0 l/m 7,9 km/h (2 Bft) W-NW 292 -4,5 C -1,2 C
15.02.2012 20:17 1,2 C 66 % 1009,1 hPa 0,0 l/m 4,0 km/h (1 Bft) N 360 -4,4 C 1,2 C
15.02.2012 20:22 1,2 C 66 % 1009,2 hPa 0,0 l/m 6,8 km/h (2 Bft) N-NW 337 -4,4 C -0,9 C
15.02.2012 20:27 1,2 C 66 % 1009,2 hPa 0,0 l/m 8,6 km/h (2 Bft) NW 315 -4,4 C -1,5 C
15.02.2012 20:32 1,2 C 66 % 1009,4 hPa 0,0 l/m 4,7 km/h (1 Bft) NO 45 -4,4 C -0,1 C
15.02.2012 20:37 1,1 C 66 % 1009,4 hPa 0,0 l/m 7,2 km/h (2 Bft) N-NO 22 -4,5 C -1,2 C
15.02.2012 20:42 1,0 C 66 % 1009,6 hPa 0,0 l/m 15,5 km/h (3 Bft) NW 315 -4,6 C -3,3 C
15.02.2012 20:47 1,0 C 66 % 1009,6 hPa 0,0 l/m 6,5 km/h (2 Bft) NW 315 -4,6 C -1,1 C
15.02.2012 20:52 0,9 C 66 % 1009,8 hPa 0,0 l/m 7,6 km/h (2 Bft) NO 45 -4,7 C -1,6 C
15.02.2012 20:57 0,9 C 67 % 1010,0 hPa 0,0 l/m 10,1 km/h (2 Bft) N-NW 337 -4,5 C -2,3 C
15.02.2012 21:02 0,9 C 67 % 1009,8 hPa 0,0 l/m 6,1 km/h (2 Bft) NW 315 -4,5 C -1,0 C
15.02.2012 21:07 0,9 C 67 % 1009,9 hPa 0,0 l/m 7,9 km/h (2 Bft) NW 315 -4,5 C -1,7 C
15.02.2012 21:12 0,9 C 68 % 1010,2 hPa 0,0 l/m 7,2 km/h (2 Bft) W-NW 292 -4,3 C -1,4 C
15.02.2012 21:17 0,9 C 68 % 1010,2 hPa 0,0 l/m 11,9 km/h (2 Bft) N-NO 22 -4,3 C -2,7 C
15.02.2012 21:22 0,9 C 68 % 1010,4 hPa 0,0 l/m 9,7 km/h (2 Bft) NO 45 -4,3 C -2,2 C
15.02.2012 21:27 0,9 C 68 % 1010,6 hPa 0,0 l/m 4,7 km/h (1 Bft) N 360 -4,3 C -0,4 C
15.02.2012 21:32 0,8 C 68 % 1010,8 hPa 0,0 l/m 8,6 km/h (2 Bft) N-NW 337 -4,4 C -2,0 C
15.02.2012 21:37 0,8 C 68 % 1010,9 hPa 0,0 l/m 10,1 km/h (2 Bft) NO 45 -4,4 C -2,4 C
15.02.2012 21:42 0,8 C 68 % 1011,0 hPa 0,0 l/m 7,2 km/h (2 Bft) N-NW 337 -4,4 C -1,5 C
15.02.2012 21:47 0,7 C 68 % 1010,9 hPa 0,0 l/m 4,0 km/h (1 Bft) NO 45 -4,5 C 0,7 C
15.02.2012 21:52 0,7 C 68 % 1011,0 hPa 0,0 l/m 10,1 km/h (2 Bft) N-NO 22 -4,5 C -2,5 C
15.02.2012 21:57 0,6 C 69 % 1011,1 hPa 0,0 l/m 5,0 km/h (1 Bft) N 360 -4,4 C -0,9 C
15.02.2012 22:02 0,6 C 69 % 1011,3 hPa 0,0 l/m 7,2 km/h (2 Bft) NW 315 -4,4 C -1,8 C
15.02.2012 22:07 0,6 C 69 % 1011,4 hPa 0,0 l/m 10,1 km/h (2 Bft) O-NO 67 -4,4 C -2,6 C
15.02.2012 22:12 0,6 C 69 % 1011,5 hPa 0,0 l/m 10,1 km/h (2 Bft) O-NO 67 -4,4 C -2,6 C
15.02.2012 22:17 0,5 C 69 % 1011,6 hPa 0,0 l/m 4,0 km/h (1 Bft) N 360 -4,5 C 0,5 C
15.02.2012 22:22 0,5 C 69 % 1011,9 hPa 0,0 l/m 8,3 km/h (2 Bft) NO 45 -4,5 C -2,2 C
15.02.2012 22:27 0,4 C 69 % 1012,0 hPa 0,0 l/m 5,0 km/h (1 Bft) N 360 -4,6 C -1,1 C
15.02.2012 22:32 0,4 C 69 % 1012,0 hPa 0,0 l/m 9,7 km/h (2 Bft) NO 45 -4,6 C -2,8 C
15.02.2012 22:37 0,4 C 69 % 1012,0 hPa 0,0 l/m 6,8 km/h (2 Bft) N-NO 22 -4,6 C -1,9 C
15.02.2012 22:42 0,4 C 69 % 1012,2 hPa 0,0 l/m 5,8 km/h (2 Bft) NW 315 -4,6 C -1,5 C
15.02.2012 22:47 0,4 C 70 % 1012,3 hPa 0,0 l/m 9,0 km/h (2 Bft) NO 45 -4,4 C -2,6 C
15.02.2012 22:52 0,4 C 70 % 1012,4 hPa 0,0 l/m 6,1 km/h (2 Bft) W 270 -4,4 C -1,6 C
15.02.2012 22:57 0,3 C 70 % 1012,5 hPa 0,0 l/m 4,7 km/h (1 Bft) N-NW 337 -4,5 C -1,1 C
15.02.2012 23:02 0,3 C 70 % 1012,5 hPa 0,0 l/m 2,2 km/h (1 Bft) N 360 -4,5 C 0,3 C
15.02.2012 23:07 0,3 C 70 % 1012,5 hPa 0,0 l/m 5,8 km/h (2 Bft) N-NO 22 -4,5 C -1,6 C
15.02.2012 23:12 0,3 C 70 % 1012,8 hPa 0,0 l/m 3,6 km/h (1 Bft) N-NW 337 -4,5 C 0,3 C
15.02.2012 23:17 0,3 C 70 % 1012,8 hPa 0,0 l/m 5,4 km/h (1 Bft) N-NO 22 -4,5 C -1,4 C
15.02.2012 23:22 0,2 C 71 % 1012,9 hPa 0,0 l/m 2,9 km/h (1 Bft) NO 45 -4,4 C 0,2 C
15.02.2012 23:27 0,2 C 71 % 1013,1 hPa 0,0 l/m 4,3 km/h (1 Bft) NO 45 -4,4 C 0,2 C
15.02.2012 23:32 0,3 C 71 % 1013,1 hPa 0,0 l/m 4,3 km/h (1 Bft) N-NW 337 -4,3 C 0,3 C
15.02.2012 23:37 0,3 C 71 % 1013,3 hPa 0,0 l/m 13,7 km/h (3 Bft) NO 45 -4,3 C -3,8 C
15.02.2012 23:42 0,4 C 70 % 1013,4 hPa 0,0 l/m 3,2 km/h (1 Bft) N-NO 22 -4,4 C 0,4 C
15.02.2012 23:47 0,3 C 71 % 1013,4 hPa 0,0 l/m 3,2 km/h (1 Bft) N-NO 22 -4,3 C 0,3 C
15.02.2012 23:52 0,3 C 71 % 1013,6 hPa 0,0 l/m 3,6 km/h (1 Bft) NW 315 -4,3 C 0,3 C
15.02.2012 23:57 0,2 C 71 % 1013,6 hPa 0,0 l/m 0,0 km/h (0 Bft) N 360 -4,4 C 0,2 C
_ Min-Zeit 23:22 14:47 03:17 - 23:57 - - 19:37 07:02
Minimum _ 0,2 C 57 % 993,5 hPa - 0,0 km/h (0 Bft) - - -4,9 C -4,0 C
_ Max-Zeit 13:07 02:32 23:52 01:07 04:02 - - 03:07 13:12
Maximum _ 4,5 C 91 % 1013,6 hPa 0,5 l/m 33,1 km/h
NW (5 Bft)
- - 1,6 C 2,5 C
Durchschnitt _ 2,4 C 74 % 1001,3 hPa #1,0 l/m 14,7 km/h (3 Bft) N-NO - -2,0 C -1,1 C
(c) by David Heller